Hauptseite
METAR-TAF:

METAR-TAF

Flughäfen :

Abilene Regional Airport

Abilene, Texas, Vereinigte Staaten

Breite: 32-24-37N, Länge: 099-40-54W, Höhe: 545 m

Beobachtung

Neuester Wetterbericht von vor 54 Minuten, um 03:52 UTC
Wind 5 kt aus Nordost
Temperatur 20°C
Luftfeuchtigkeit 64%
Luftdruck 1019 hPa
Sichtweite: 16.1 km
Himmel klar

METAR: KABI 260352Z 04005KT 10SM CLR 20/13 A3010 RMK AO2 SLP172 T02000133

Zeit: 23:46 (04:46 UTC)

Prognose

Neuester Wetterbericht von vor 5 Stunden und 24 Minuten, um 23:22 UTC
Gültige Prognose vom 26 um 00 UTC bis 26 um 24 UTC
Wind 8 kt aus Nord/Nordost
Sichtweite: 10 km
Himmel klar
Ab 26 um 1300 UTC
Wind 11 kt aus Ost
Sichtweite: 10 km
Leicht bewölkt in der Höhe von 15000 ft
Ab 26 um 1900 UTC
Wind 10 kt aus Südost
Sichtweite: 10 km
Aufgelockert bewölkt in der Höhe von 25000 ft

TAF: KABI 252322Z 2600/2624 03008KT P6SM SKC FM261300 09011KT P6SM FEW150 FM261900 14010KT P6SM SCT250

Wetterbeobachtungen und Prognosen von mehr als 4000 Flughäfen (METAR und TAF Bericht).

Die verfügbaren Stationen werden durch gelbe und rote Markierungen auf der Karte dargestellt.

Führen Sie die Maus auf sie, um den Namen der Station zu sehen.

Darauf klicken, um die Beobachtung von Wetterbeobachtungen und Prognosen zu sehen.

Um die Karte zu ändern : klicken Sie auf den grünen Tasten mit einem schwarzen Kreuz Zum Vergrößern, auf den grünen Button mit einem Gedankenstrich zu verkleinern, oder auf die grünen Pfeile für benachbarte Karten.


METAR-TAF: